Terminal Aerodrome Forecast
Issued by NWS Portland, OR

Home | Current Version | Previous Version | Text Only | Print | Product List | Glossary On
Versions: 1 2 3 4 5 6 7 8 9 10 11 12 13 14 15 16 17 18 19 20 21 22 23
000
FTUS46 KPQR 201731
TAFHIO
TAF
KHIO 201731Z 2018/2118 19010KT P6SM VCSH SCT015 BKN050
      TEMPO 2018/2022 4SM -SHRA BKN015
     FM210300 19005KT P6SM BKN060
     FM210800 14009KT P6SM -RA SCT020 OVC040
     FM211500 16015G25KT 5SM -RA BR OVC020=

USA.gov is the U.S. government's official web portal to all federal, state and local government web resources and services.